createdAt,value
2016-06-03T00:00:20.576Z,99.99
2016-06-03T00:01:20.624Z,99.99
2016-06-03T00:02:20.659Z,99.99
2016-06-03T00:03:20.693Z,99.99
2016-06-03T00:04:20.742Z,99.99
2016-06-03T00:05:20.775Z,99.99
2016-06-03T00:06:20.809Z,99.99
2016-06-03T00:07:20.844Z,99.99
2016-06-03T00:08:20.878Z,99.99
2016-06-03T00:09:20.911Z,99.99
2016-06-03T00:10:21.602Z,99.99
2016-06-03T00:11:21.010Z,99.99
2016-06-03T00:12:21.029Z,99.99
2016-06-03T00:13:21.063Z,99.99
2016-06-03T00:14:21.097Z,99.99
2016-06-03T00:15:21.131Z,99.99
2016-06-03T00:16:21.196Z,99.99
2016-06-03T00:17:21.214Z,99.99
2016-06-03T00:18:21.249Z,99.99
2016-06-03T00:19:21.283Z,99.99
2016-06-03T00:20:21.317Z,99.99
2016-06-03T00:21:21.365Z,99.99
2016-06-03T00:22:21.400Z,99.99
2016-06-03T00:23:21.433Z,99.99
2016-06-03T00:24:21.468Z,99.99
2016-06-03T00:25:21.595Z,99.99
2016-06-03T00:26:21.551Z,99.99
2016-06-03T00:27:21.585Z,99.99
2016-06-03T00:28:21.618Z,99.99
2016-06-03T00:29:21.654Z,99.99
2016-06-03T00:30:21.702Z,99.99
2016-06-03T00:31:21.736Z,99.99
2016-06-03T00:32:21.787Z,99.99
2016-06-03T00:33:21.804Z,99.99
2016-06-03T00:34:21.838Z,99.99
2016-06-03T00:35:21.872Z,99.99
2016-06-03T00:36:21.922Z,99.99
2016-06-03T00:37:21.956Z,99.99
2016-06-03T00:38:21.989Z,99.99
2016-06-03T00:39:22.023Z,99.99
2016-06-03T00:40:21.917Z,99.99
2016-06-03T00:41:22.107Z,99.99
2016-06-03T00:42:22.142Z,99.99
2016-06-03T00:43:22.175Z,99.99
2016-06-03T00:44:22.208Z,99.99
2016-06-03T00:45:22.242Z,99.99
2016-06-03T00:46:22.292Z,99.99
2016-06-03T00:47:22.326Z,99.99
2016-06-03T00:48:22.361Z,99.99
2016-06-03T00:49:22.394Z,99.99
2016-06-03T00:50:22.428Z,99.99
2016-06-03T00:51:22.477Z,99.99
2016-06-03T00:52:22.511Z,99.99
2016-06-03T00:53:22.561Z,99.99
2016-06-03T00:54:22.579Z,99.99
2016-06-03T00:55:22.629Z,99.99
2016-06-03T00:56:22.663Z,99.99
2016-06-03T00:57:22.697Z,99.99
2016-06-03T00:58:22.732Z,99.99
2016-06-03T00:59:22.765Z,99.99
2016-06-03T01:00:22.814Z,99.99
2016-06-03T01:01:22.848Z,99.99
2016-06-03T01:02:22.882Z,99.99
2016-06-03T01:03:22.916Z,99.99
2016-06-03T01:04:22.950Z,99.99
2016-06-03T01:05:22.984Z,99.99
2016-06-03T01:06:23.034Z,99.99
2016-06-03T01:07:23.068Z,99.99
2016-06-03T01:08:23.102Z,99.99
2016-06-03T01:09:23.136Z,99.99
2016-06-03T01:10:23.170Z,99.99
2016-06-03T01:11:23.219Z,99.99
2016-06-03T01:12:23.253Z,99.99
2016-06-03T01:13:23.286Z,99.99
2016-06-03T01:14:23.320Z,99.99
2016-06-03T01:15:23.355Z,99.99
2016-06-03T01:16:23.405Z,99.99
2016-06-03T01:17:23.422Z,99.99
2016-06-03T01:18:23.472Z,99.99
2016-06-03T01:19:23.506Z,99.99
2016-06-03T01:20:23.540Z,99.99
2016-06-03T01:21:23.589Z,99.99
2016-06-03T01:22:23.624Z,99.99
2016-06-03T01:23:23.658Z,99.99
2016-06-03T01:24:23.707Z,99.99
2016-06-03T01:25:23.804Z,99.99
2016-06-03T01:26:23.603Z,99.99
2016-06-03T01:27:23.809Z,99.99
2016-06-03T01:28:23.843Z,99.99
2016-06-03T01:29:23.876Z,99.99
2016-06-03T01:30:23.910Z,99.99
2016-06-03T01:31:23.960Z,99.99
2016-06-03T01:32:23.979Z,99.99
2016-06-03T01:33:24.028Z,99.99
2016-06-03T01:34:24.062Z,99.99
2016-06-03T01:35:24.096Z,99.99
2016-06-03T01:36:24.129Z,99.99
2016-06-03T01:37:24.179Z,99.99
2016-06-03T01:38:24.198Z,99.99
2016-06-03T01:39:24.247Z,99.99
2016-06-03T01:40:24.141Z,99.99
2016-06-03T01:41:24.315Z,99.99
2016-06-03T01:42:24.364Z,99.99
2016-06-03T01:43:24.398Z,99.99
2016-06-03T01:44:24.433Z,99.99
2016-06-03T01:45:24.467Z,99.99
2016-06-03T01:46:24.516Z,99.99
2016-06-03T01:47:24.550Z,99.99
2016-06-03T01:48:24.584Z,99.99
2016-06-03T01:49:24.618Z,99.99
2016-06-03T01:50:24.652Z,99.99
2016-06-03T01:51:24.686Z,99.99
2016-06-03T01:52:24.720Z,99.99
2016-06-03T01:53:24.770Z,99.99
2016-06-03T01:54:24.802Z,99.99
2016-06-03T01:55:24.837Z,99.99
2016-06-03T01:56:24.871Z,99.99
2016-06-03T01:57:24.905Z,99.99
2016-06-03T01:58:24.954Z,99.99
2016-06-03T01:59:24.988Z,99.99
2016-06-03T02:00:25.023Z,99.99
2016-06-03T02:01:25.072Z,99.99
2016-06-03T02:02:25.090Z,99.99
2016-06-03T02:03:25.141Z,99.99
2016-06-03T02:04:25.174Z,99.99
2016-06-03T02:05:25.207Z,99.99
2016-06-03T02:06:25.242Z,99.99
2016-06-03T02:07:25.292Z,99.99
2016-06-03T02:08:25.325Z,99.99
2016-06-03T02:09:25.360Z,99.99
2016-06-03T02:10:25.737Z,99.99
2016-06-03T02:11:25.428Z,99.99
2016-06-03T02:12:25.476Z,99.99
2016-06-03T02:13:25.511Z,99.99
2016-06-03T02:14:25.545Z,99.99
2016-06-03T02:15:25.595Z,99.99
2016-06-03T02:16:25.612Z,99.99
2016-06-03T02:17:25.647Z,99.99
2016-06-03T02:18:25.696Z,99.99
2016-06-03T02:19:25.730Z,99.99
2016-06-03T02:20:25.764Z,99.99
2016-06-03T02:21:25.797Z,99.99
2016-06-03T02:22:25.847Z,99.99
2016-06-03T02:23:25.881Z,99.99
2016-06-03T02:24:25.915Z,99.99
2016-06-03T02:25:25.949Z,99.99
2016-06-03T02:26:25.983Z,99.99
2016-06-03T02:27:26.032Z,99.99
2016-06-03T02:28:26.066Z,99.99
2016-06-03T02:29:26.101Z,99.99
2016-06-03T02:30:26.135Z,99.99
2016-06-03T02:31:26.185Z,99.99
2016-06-03T02:32:26.218Z,99.99
2016-06-03T02:33:26.268Z,99.99
2016-06-03T02:34:26.286Z,99.99
2016-06-03T02:35:26.321Z,99.99
2016-06-03T02:36:26.354Z,99.99
2016-06-03T02:37:26.404Z,99.99
2016-06-03T02:38:26.437Z,99.99
2016-06-03T02:39:26.315Z,99.99
2016-06-03T02:40:26.537Z,99.99
2016-06-03T02:41:26.539Z,99.99
2016-06-03T02:42:26.589Z,99.99
2016-06-03T02:43:26.623Z,99.99
2016-06-03T02:44:26.656Z,99.99
2016-06-03T02:45:26.690Z,99.99
2016-06-03T02:46:26.725Z,99.99
2016-06-03T02:47:26.759Z,99.99
2016-06-03T02:48:26.808Z,99.99
2016-06-03T02:49:26.841Z,99.99
2016-06-03T02:50:26.875Z,99.99
2016-06-03T02:51:26.910Z,99.99
2016-06-03T02:52:26.944Z,99.99
2016-06-03T02:53:26.993Z,99.99
2016-06-03T02:54:27.152Z,99.99
2016-06-03T02:55:27.061Z,99.99
2016-06-03T02:56:27.111Z,99.99
2016-06-03T02:57:27.129Z,99.99
2016-06-03T02:58:27.179Z,99.99
2016-06-03T02:59:27.213Z,99.99
2016-06-03T03:00:27.247Z,99.99
2016-06-03T03:01:27.280Z,99.99
2016-06-03T03:02:27.315Z,99.99
2016-06-03T03:03:27.348Z,99.99
2016-06-03T03:04:27.398Z,99.99
2016-06-03T03:05:27.432Z,99.99
2016-06-03T03:06:27.481Z,99.99
2016-06-03T03:07:27.500Z,99.99
2016-06-03T03:08:27.534Z,99.99
2016-06-03T03:09:27.583Z,99.99
2016-06-03T03:10:27.617Z,99.99
2016-06-03T03:11:27.651Z,99.99
2016-06-03T03:12:27.685Z,99.99
2016-06-03T03:13:27.720Z,99.99
2016-06-03T03:14:27.753Z,99.99
2016-06-03T03:15:27.803Z,99.99
2016-06-03T03:16:27.836Z,99.99
2016-06-03T03:17:27.870Z,99.99
2016-06-03T03:18:27.904Z,99.99
2016-06-03T03:19:27.938Z,99.99
2016-06-03T03:20:27.972Z,99.99
2016-06-03T03:21:28.021Z,99.99
2016-06-03T03:22:28.056Z,99.99
2016-06-03T03:23:28.090Z,99.99
2016-06-03T03:24:28.124Z,99.99
2016-06-03T03:25:28.173Z,99.99
2016-06-03T03:26:28.192Z,99.99
2016-06-03T03:27:28.241Z,99.99
2016-06-03T03:28:28.274Z,99.99
2016-06-03T03:29:28.308Z,99.99
2016-06-03T03:30:28.343Z,99.99
2016-06-03T03:31:28.376Z,99.99
2016-06-03T03:32:28.411Z,99.99
2016-06-03T03:33:28.460Z,99.99
2016-06-03T03:34:28.494Z,99.99
2016-06-03T03:35:28.528Z,99.99
2016-06-03T03:36:28.563Z,99.99
2016-06-03T03:37:28.595Z,99.99
2016-06-03T03:38:28.629Z,99.99
2016-06-03T03:39:28.679Z,99.99
2016-06-03T03:40:28.713Z,99.99
2016-06-03T03:41:28.748Z,99.99
2016-06-03T03:42:28.781Z,99.99
2016-06-03T03:43:28.815Z,99.99
2016-06-03T03:44:28.864Z,99.99
2016-06-03T03:45:28.899Z,99.99
2016-06-03T03:46:28.933Z,99.99
2016-06-03T03:47:28.967Z,99.99
2016-06-03T03:48:29.016Z,99.99
2016-06-03T03:49:29.050Z,99.99
2016-06-03T03:50:29.084Z,99.99
2016-06-03T03:51:29.118Z,99.99
2016-06-03T03:52:29.168Z,99.99
2016-06-03T03:53:29.202Z,99.99
2016-06-03T03:54:29.236Z,99.99
2016-06-03T03:55:29.269Z,99.99
2016-06-03T03:56:29.303Z,99.99
2016-06-03T03:57:29.337Z,99.99
2016-06-03T03:58:29.387Z,99.99
2016-06-03T03:59:29.421Z,99.99
2016-06-03T04:00:29.455Z,99.99
2016-06-03T04:01:29.489Z,99.99
2016-06-03T04:02:29.523Z,99.99
2016-06-03T04:03:29.557Z,99.99
2016-06-03T04:04:29.621Z,99.99
2016-06-03T04:05:29.640Z,99.99
2016-06-03T04:06:29.674Z,99.99
2016-06-03T04:07:29.707Z,99.99
2016-06-03T04:08:29.743Z,99.99
2016-06-03T04:09:29.791Z,99.99
2016-06-03T04:10:29.825Z,99.99
2016-06-03T04:11:29.859Z,99.99
2016-06-03T04:12:29.893Z,99.99
2016-06-03T04:13:29.943Z,99.99
2016-06-03T04:14:29.962Z,99.99
2016-06-03T04:15:30.011Z,99.99
2016-06-03T04:16:30.044Z,99.99
2016-06-03T04:17:30.078Z,99.99
2016-06-03T04:18:30.112Z,99.99
2016-06-03T04:19:30.162Z,99.99
2016-06-03T04:20:30.212Z,99.99
2016-06-03T04:21:30.245Z,99.99
2016-06-03T04:22:30.280Z,99.99
2016-06-03T04:23:30.298Z,99.99
2016-06-03T04:24:30.348Z,99.99
2016-06-03T04:25:30.381Z,99.99
2016-06-03T04:26:30.416Z,99.99
2016-06-03T04:27:30.449Z,99.99
2016-06-03T04:28:30.499Z,99.99
2016-06-03T04:29:30.533Z,99.99
2016-06-03T04:30:30.567Z,99.99
2016-06-03T04:31:30.600Z,99.99
2016-06-03T04:32:30.650Z,99.99
2016-06-03T04:33:30.685Z,99.99
2016-06-03T04:34:30.719Z,99.99
2016-06-03T04:35:30.752Z,99.99
2016-06-03T04:36:30.786Z,99.99
2016-06-03T04:37:30.835Z,99.99
2016-06-03T04:38:30.869Z,99.99
2016-06-03T04:39:30.903Z,99.99
2016-06-03T04:40:30.954Z,99.99
2016-06-03T04:41:30.987Z,99.99
2016-06-03T04:42:31.021Z,99.99
2016-06-03T04:43:31.054Z,99.99
2016-06-03T04:44:31.089Z,99.99
2016-06-03T04:45:31.138Z,99.99
2016-06-03T04:46:31.172Z,99.99
2016-06-03T04:47:31.207Z,99.99
2016-06-03T04:48:31.100Z,99.99
2016-06-03T04:49:31.289Z,99.99
2016-06-03T04:50:31.308Z,99.99
2016-06-03T04:51:31.358Z,99.99
2016-06-03T04:52:31.407Z,99.99
2016-06-03T04:53:31.425Z,99.99
2016-06-03T04:54:31.475Z,99.99
2016-06-03T04:55:31.353Z,99.99
2016-06-03T04:56:31.543Z,99.99
2016-06-03T04:57:31.592Z,99.99
2016-06-03T04:58:31.627Z,99.99
2016-06-03T04:59:31.661Z,99.99
2016-06-03T05:00:31.694Z,99.99
2016-06-03T05:01:31.743Z,99.99
2016-06-03T05:02:31.763Z,99.99
2016-06-03T05:03:31.796Z,99.99
2016-06-03T05:04:31.830Z,99.99
2016-06-03T05:05:31.879Z,99.99
2016-06-03T05:06:31.757Z,99.99
2016-06-03T05:07:31.947Z,99.99
2016-06-03T05:08:31.997Z,99.99
2016-06-03T05:09:32.468Z,99.99
2016-06-03T05:10:31.909Z,99.99
2016-06-03T05:11:32.130Z,99.99
2016-06-03T05:12:32.133Z,99.99
2016-06-03T05:13:32.182Z,99.99
2016-06-03T05:14:32.216Z,99.99
2016-06-03T05:15:32.251Z,99.99
2016-06-03T05:16:32.284Z,99.99
2016-06-03T05:17:32.348Z,99.99
2016-06-03T05:18:32.367Z,99.99
2016-06-03T05:19:32.401Z,99.99
2016-06-03T05:20:32.436Z,99.99
2016-06-03T05:21:32.484Z,99.99
2016-06-03T05:22:32.519Z,99.99
2016-06-03T05:23:32.381Z,99.99
2016-06-03T05:24:32.572Z,99.99
2016-06-03T05:25:32.620Z,99.99
2016-06-03T05:26:32.655Z,99.99
2016-06-03T05:27:32.689Z,99.99
2016-06-03T05:28:32.739Z,99.99
2016-06-03T05:29:32.772Z,99.99
2016-06-03T05:30:32.806Z,99.99
2016-06-03T05:31:32.841Z,99.99
2016-06-03T05:32:32.875Z,99.99
2016-06-03T05:33:32.923Z,99.99
2016-06-03T05:34:32.957Z,99.99
2016-06-03T05:35:32.991Z,99.99
2016-06-03T05:36:33.057Z,99.99
2016-06-03T05:37:32.918Z,99.99
2016-06-03T05:38:33.109Z,99.99
2016-06-03T05:39:33.455Z,99.99
2016-06-03T05:40:33.802Z,99.99
2016-06-03T05:41:33.210Z,99.99
2016-06-03T05:42:33.260Z,99.99
2016-06-03T05:43:33.294Z,99.99
2016-06-03T05:44:33.329Z,99.99
2016-06-03T05:45:33.362Z,99.99
2016-06-03T05:46:33.412Z,99.99
2016-06-03T05:47:33.446Z,99.99
2016-06-03T05:48:33.480Z,99.99
2016-06-03T05:49:33.514Z,99.99
2016-06-03T05:50:33.548Z,99.99
2016-06-03T05:51:33.582Z,99.99
2016-06-03T05:52:33.615Z,99.99
2016-06-03T05:53:33.664Z,99.99
2016-06-03T05:54:33.698Z,99.99
2016-06-03T05:55:34.280Z,99.99
2016-06-03T05:56:33.766Z,99.99
2016-06-03T05:57:33.816Z,99.99
2016-06-03T05:58:33.866Z,99.99
2016-06-03T05:59:33.884Z,99.99
2016-06-03T06:00:33.918Z,99.99
2016-06-03T06:01:33.967Z,99.99
2016-06-03T06:02:34.002Z,99.99
2016-06-03T06:03:33.895Z,99.99
2016-06-03T06:04:34.069Z,99.99
2016-06-03T06:05:34.119Z,99.99
2016-06-03T06:06:34.153Z,99.99
2016-06-03T06:07:34.188Z,99.99
2016-06-03T06:08:34.221Z,99.99
2016-06-03T06:09:34.536Z,99.99
2016-06-03T06:10:34.163Z,99.99
2016-06-03T06:11:34.324Z,99.99
2016-06-03T06:12:34.371Z,99.99
2016-06-03T06:13:34.406Z,99.99
2016-06-03T06:14:34.440Z,99.99
2016-06-03T06:15:34.490Z,99.99
2016-06-03T06:16:34.523Z,99.99
2016-06-03T06:17:34.557Z,99.99
2016-06-03T06:18:34.592Z,99.99
2016-06-03T06:19:34.641Z,99.99
2016-06-03T06:20:34.675Z,99.99
2016-06-03T06:21:34.709Z,99.99
2016-06-03T06:22:34.743Z,99.99
2016-06-03T06:23:34.777Z,99.99
2016-06-03T06:24:35.436Z,99.99
2016-06-03T06:25:34.861Z,99.99
2016-06-03T06:26:34.895Z,99.99
2016-06-03T06:27:34.945Z,99.99
2016-06-03T06:28:34.961Z,99.99
2016-06-03T06:29:35.027Z,99.99
2016-06-03T06:30:35.045Z,99.99
2016-06-03T06:31:35.095Z,99.99
2016-06-03T06:32:35.113Z,99.99
2016-06-03T06:33:35.163Z,99.99
2016-06-03T06:34:35.197Z,99.99
2016-06-03T06:35:35.231Z,99.99
2016-06-03T06:36:35.280Z,99.99
2016-06-03T06:37:35.158Z,99.99
2016-06-03T06:38:35.349Z,99.99
2016-06-03T06:39:35.226Z,99.99
2016-06-03T06:40:35.370Z,99.99
2016-06-03T06:41:35.466Z,99.99
2016-06-03T06:42:35.531Z,99.99
2016-06-03T06:43:35.534Z,99.99
2016-06-03T06:44:35.583Z,99.99
2016-06-03T06:45:35.617Z,99.99
2016-06-03T06:46:35.651Z,99.99
2016-06-03T06:47:35.709Z,99.99
2016-06-03T06:48:35.786Z,99.99
2016-06-03T06:49:35.847Z,99.99
2016-06-03T06:50:35.924Z,99.99
2016-06-03T06:51:35.970Z,99.99
2016-06-03T06:52:36.032Z,99.99
2016-06-03T06:53:35.934Z,99.99
2016-06-03T06:54:36.134Z,99.99
2016-06-03T06:55:36.179Z,99.99
2016-06-03T06:56:36.208Z,99.99
2016-06-03T06:57:36.261Z,99.99
2016-06-03T06:58:36.298Z,99.99
2016-06-03T06:59:36.335Z,99.99
2016-06-03T07:00:36.389Z,99.99
2016-06-03T07:01:36.426Z,99.99
2016-06-03T07:02:36.461Z,99.99
2016-06-03T07:03:36.512Z,99.99
2016-06-03T07:04:36.562Z,99.99
2016-06-03T07:05:36.582Z,99.99
2016-06-03T07:06:36.617Z,99.99
2016-06-03T07:07:36.667Z,99.99
2016-06-03T07:08:36.702Z,99.99
2016-06-03T07:09:36.987Z,99.99
2016-06-03T07:10:37.475Z,99.99
2016-06-03T07:11:36.823Z,99.99
2016-06-03T07:12:36.856Z,99.99
2016-06-03T07:13:36.890Z,99.99
2016-06-03T07:14:36.940Z,99.99
2016-06-03T07:15:36.973Z,99.99
2016-06-03T07:16:37.039Z,99.99
2016-06-03T07:17:37.056Z,99.99
2016-06-03T07:18:37.091Z,99.99
2016-06-03T07:19:37.125Z,99.99
2016-06-03T07:20:37.158Z,99.99
2016-06-03T07:21:37.192Z,99.99
2016-06-03T07:22:37.242Z,99.99
2016-06-03T07:23:37.276Z,99.99
2016-06-03T07:24:37.341Z,99.99
2016-06-03T07:25:37.736Z,99.99
2016-06-03T07:26:37.394Z,99.99
2016-06-03T07:27:37.428Z,99.99
2016-06-03T07:28:37.477Z,99.99
2016-06-03T07:29:37.511Z,99.99
2016-06-03T07:30:37.545Z,99.99
2016-06-03T07:31:37.595Z,99.99
2016-06-03T07:32:37.629Z,99.99
2016-06-03T07:33:37.663Z,99.99
2016-06-03T07:34:37.712Z,99.99
2016-06-03T07:35:37.746Z,99.99
2016-06-03T07:36:37.780Z,99.99
2016-06-03T07:37:37.658Z,99.99
2016-06-03T07:38:37.848Z,99.99
2016-06-03T07:39:37.741Z,99.99
2016-06-03T07:40:37.947Z,99.99
2016-06-03T07:41:37.810Z,99.99
2016-06-03T07:42:38.015Z,99.99
2016-06-03T07:43:38.048Z,99.99
2016-06-03T07:44:38.098Z,99.99
2016-06-03T07:45:38.132Z,99.99
2016-06-03T07:46:38.167Z,99.99
2016-06-03T07:47:38.215Z,99.99
2016-06-03T07:48:38.250Z,99.99
2016-06-03T07:49:38.300Z,99.99
2016-06-03T07:50:38.317Z,99.99
2016-06-03T07:51:38.367Z,99.99
2016-06-03T07:52:38.417Z,99.99
2016-06-03T07:53:38.450Z,99.99
2016-06-03T07:54:38.484Z,99.99
2016-06-03T07:55:38.534Z,99.99
2016-06-03T07:56:38.569Z,99.99
2016-06-03T07:57:38.617Z,99.99
2016-06-03T07:58:38.652Z,99.99
2016-06-03T07:59:38.685Z,99.99
2016-06-03T08:00:38.719Z,99.99
2016-06-03T08:01:38.753Z,99.99
2016-06-03T08:02:38.787Z,99.99
2016-06-03T08:03:38.838Z,99.99
2016-06-03T08:04:38.871Z,99.99
2016-06-03T08:05:38.921Z,99.99
2016-06-03T08:06:38.954Z,99.99
2016-06-03T08:07:39.004Z,99.99
2016-06-03T08:08:39.038Z,99.99
2016-06-03T08:09:39.196Z,99.99
2016-06-03T08:10:39.356Z,99.99
2016-06-03T08:11:39.155Z,99.99
2016-06-03T08:12:39.033Z,99.99
2016-06-03T08:13:39.239Z,99.99
2016-06-03T08:14:39.273Z,99.99
2016-06-03T08:15:39.307Z,99.99
2016-06-03T08:16:39.340Z,99.99
2016-06-03T08:17:39.390Z,99.99
2016-06-03T08:18:39.440Z,99.99
2016-06-03T08:19:39.458Z,99.99
2016-06-03T08:20:39.508Z,99.99
2016-06-03T08:21:39.542Z,99.99
2016-06-03T08:22:39.591Z,99.99
2016-06-03T08:23:39.625Z,99.99
2016-06-03T08:24:40.034Z,99.99
2016-06-03T08:25:39.912Z,99.99
2016-06-03T08:26:39.742Z,99.99
2016-06-03T08:27:39.777Z,99.99
2016-06-03T08:28:39.811Z,99.99
2016-06-03T08:29:39.844Z,99.99
2016-06-03T08:30:39.910Z,99.99
2016-06-03T08:31:39.959Z,99.99
2016-06-03T08:32:39.977Z,99.99
2016-06-03T08:33:40.011Z,99.99
2016-06-03T08:34:40.045Z,99.99
2016-06-03T08:35:40.095Z,99.99
2016-06-03T08:36:40.129Z,99.99
2016-06-03T08:37:40.163Z,99.99
2016-06-03T08:38:40.213Z,99.99
2016-06-03T08:39:40.262Z,99.99
2016-06-03T08:40:40.640Z,99.99
2016-06-03T08:41:40.314Z,99.99
2016-06-03T08:42:40.363Z,99.99
2016-06-03T08:43:40.413Z,99.99
2016-06-03T08:44:40.431Z,99.99
2016-06-03T08:45:40.482Z,99.99
2016-06-03T08:46:40.531Z,99.99
2016-06-03T08:47:40.564Z,99.99
2016-06-03T08:48:40.599Z,99.99
2016-06-03T08:49:40.648Z,99.99
2016-06-03T08:50:40.526Z,99.99
2016-06-03T08:51:40.732Z,99.99
2016-06-03T08:52:40.765Z,99.99
2016-06-03T08:53:40.799Z,99.99
2016-06-03T08:54:40.850Z,99.99
2016-06-03T08:55:41.133Z,99.99
2016-06-03T08:56:40.917Z,99.99
2016-06-03T08:57:40.967Z,99.99
2016-06-03T08:58:41.000Z,99.99
2016-06-03T08:59:41.034Z,99.99
2016-06-03T09:00:41.069Z,99.99
2016-06-03T09:01:41.118Z,99.99
2016-06-03T09:02:41.152Z,99.99
2016-06-03T09:03:41.202Z,99.99
2016-06-03T09:04:41.236Z,99.99
2016-06-03T09:05:41.130Z,99.99
2016-06-03T09:06:41.319Z,99.99
2016-06-03T09:07:41.352Z,99.99
2016-06-03T09:08:41.402Z,99.99
2016-06-03T09:09:41.452Z,99.99
2016-06-03T09:10:41.908Z,99.99
2016-06-03T09:11:41.520Z,99.99
2016-06-03T09:12:41.569Z,99.99
2016-06-03T09:13:41.604Z,99.99
2016-06-03T09:14:41.654Z,99.99
2016-06-03T09:15:41.734Z,99.99
2016-06-03T09:16:41.737Z,99.99
2016-06-03T09:17:41.771Z,99.99
2016-06-03T09:18:41.805Z,99.99
2016-06-03T09:19:41.870Z,99.99
2016-06-03T09:20:41.888Z,99.99
2016-06-03T09:21:41.937Z,99.99
2016-06-03T09:22:41.971Z,99.99
2016-06-03T09:23:42.021Z,99.99
2016-06-03T09:24:42.056Z,99.99
2016-06-03T09:25:42.104Z,99.99
2016-06-03T09:26:42.153Z,99.99
2016-06-03T09:27:42.173Z,99.99
2016-06-03T09:28:42.222Z,99.99
2016-06-03T09:29:42.255Z,99.99
2016-06-03T09:30:42.306Z,99.99
2016-06-03T09:31:42.355Z,99.99
2016-06-03T09:32:42.404Z,99.99
2016-06-03T09:33:42.422Z,99.99
2016-06-03T09:34:42.473Z,99.99
2016-06-03T09:35:42.506Z,99.99
2016-06-03T09:36:42.556Z,99.99
2016-06-03T09:37:42.590Z,99.99
2016-06-03T09:38:42.639Z,99.99
2016-06-03T09:39:43.252Z,99.99
2016-06-03T09:40:43.254Z,99.99
2016-06-03T09:41:42.757Z,99.99
2016-06-03T09:42:42.807Z,99.99
2016-06-03T09:43:42.841Z,99.99
2016-06-03T09:44:42.875Z,99.99
2016-06-03T09:45:42.924Z,99.99
2016-06-03T09:46:42.957Z,99.99
2016-06-03T09:47:43.008Z,99.99
2016-06-03T09:48:43.040Z,99.99
2016-06-03T09:49:43.091Z,99.99
2016-06-03T09:50:43.140Z,99.99
2016-06-03T09:51:43.174Z,99.99
2016-06-03T09:52:43.209Z,99.99
2016-06-03T09:53:43.273Z,99.99
2016-06-03T09:54:43.886Z,99.99
2016-06-03T09:55:43.357Z,99.99
2016-06-03T09:56:43.375Z,99.99
2016-06-03T09:57:43.425Z,99.99
2016-06-03T09:58:43.302Z,99.55
2016-06-03T09:59:43.508Z,99.16
2016-06-03T10:00:43.543Z,98.54
2016-06-03T10:01:43.592Z,97.28
2016-06-03T10:02:43.626Z,95.31
2016-06-03T10:03:43.675Z,96.75
2016-06-03T10:04:43.725Z,97.19
2016-06-03T10:05:43.743Z,98.15
2016-06-03T10:06:43.794Z,98.34
2016-06-03T10:07:43.842Z,98.44
2016-06-03T10:08:43.876Z,98.54
2016-06-03T10:09:43.927Z,98.54
2016-06-03T10:10:44.288Z,99.35
2016-06-03T10:11:44.010Z,98.68
2016-06-03T10:12:44.044Z,97.67
2016-06-03T10:13:44.093Z,96.94
2016-06-03T10:14:44.127Z,95.21
2016-06-03T10:15:44.176Z,94.73
2016-06-03T10:16:44.226Z,94.05
2016-06-03T10:17:44.260Z,94
2016-06-03T10:18:44.310Z,93.23
2016-06-03T10:19:44.343Z,91.53
2016-06-03T10:20:44.393Z,92.94
2016-06-03T10:21:44.443Z,92.94
2016-06-03T10:22:44.476Z,91.39
2016-06-03T10:23:44.510Z,91.44
2016-06-03T10:24:45.137Z,90.19
2016-06-03T10:25:44.734Z,89.75
2016-06-03T10:26:44.644Z,89.45
2016-06-03T10:27:44.693Z,90.47
2016-06-03T10:28:44.743Z,89.89
2016-06-03T10:29:44.792Z,90.91
2016-06-03T10:30:44.826Z,91.25
2016-06-03T10:31:44.876Z,93.42
2016-06-03T10:32:44.909Z,91.11
2016-06-03T10:33:44.959Z,91.53
2016-06-03T10:34:45.008Z,89.89
2016-06-03T10:35:45.042Z,86.6
2016-06-03T10:36:45.092Z,83.2
2016-06-03T10:37:45.126Z,80.57
2016-06-03T10:38:45.176Z,78.97
2016-06-03T10:39:45.444Z,79.93
2016-06-03T10:40:45.260Z,80.32
2016-06-03T10:41:45.308Z,79.99
2016-06-03T10:42:45.358Z,79.64
2016-06-03T10:43:45.408Z,81.54
2016-06-03T10:44:45.457Z,83.88
2016-06-03T10:45:45.491Z,83.36
2016-06-03T10:46:45.541Z,81.62
2016-06-03T10:47:45.575Z,79.95
2016-06-03T10:48:45.624Z,78.54
2016-06-03T10:49:45.674Z,74.32
2016-06-03T10:50:45.724Z,68.41
2016-06-03T10:51:45.774Z,68.8
2016-06-03T10:52:45.823Z,67.8
2016-06-03T10:53:45.872Z,67.24
2016-06-03T10:54:45.923Z,63.65
2016-06-03T10:55:45.956Z,61.57
2016-06-03T10:56:46.021Z,59.97
2016-06-03T10:57:46.056Z,59.22
2016-06-03T10:58:46.104Z,56.9
2016-06-03T10:59:46.170Z,56.15
2016-06-03T11:00:46.203Z,58.95
2016-06-03T11:01:46.253Z,59.23
2016-06-03T11:02:46.319Z,64.81
2016-06-03T11:03:46.353Z,66.53
2016-06-03T11:04:46.417Z,66.3
2016-06-03T11:05:46.467Z,68.99
2016-06-03T11:06:46.516Z,69.99
2016-06-03T11:07:46.566Z,68.66
2016-06-03T11:08:46.631Z,65.33
2016-06-03T11:09:46.509Z,63.36
2016-06-03T11:10:46.730Z,63.84
2016-06-03T11:11:46.780Z,61.47
2016-06-03T11:12:46.830Z,62.48
2016-06-03T11:13:46.879Z,64.72
2016-06-03T11:14:46.944Z,66.11
2016-06-03T11:15:46.993Z,66.27
2016-06-03T11:16:47.027Z,64.56
2016-06-03T11:17:47.093Z,63.55
2016-06-03T11:18:47.143Z,61.8
2016-06-03T11:19:47.193Z,60.89
2016-06-03T11:20:47.242Z,57.84
2016-06-03T11:21:47.291Z,59.33
2016-06-03T11:22:47.341Z,57.67
2016-06-03T11:23:47.390Z,55.22
2016-06-03T11:24:47.737Z,55.51
2016-06-03T11:25:47.520Z,56.07
2016-06-03T11:26:47.555Z,58.38
2016-06-03T11:27:47.605Z,56.4
2016-06-03T11:28:47.670Z,56.56
2016-06-03T11:29:47.720Z,55.58
2016-06-03T11:30:47.769Z,58.58
2016-06-03T11:31:47.818Z,60.44
2016-06-03T11:32:47.883Z,61.15
2016-06-03T11:33:47.933Z,62.32
2016-06-03T11:34:47.983Z,63.17
2016-06-03T11:35:48.033Z,63.07
2016-06-03T11:36:48.098Z,60.57
2016-06-03T11:37:48.147Z,58.49
2016-06-03T11:38:48.197Z,57.96
2016-06-03T11:39:48.247Z,55.72
2016-06-03T11:40:49.217Z,56.21
2016-06-03T11:41:48.345Z,55.65
2016-06-03T11:42:48.411Z,55.58
2016-06-03T11:43:48.460Z,54.9
2016-06-03T11:44:48.353Z,54.31
2016-06-03T11:45:48.574Z,52.87
2016-06-03T11:46:48.624Z,52.48
2016-06-03T11:47:48.674Z,54.73
2016-06-03T11:48:48.739Z,54.44
2016-06-03T11:49:48.821Z,55.94
2016-06-03T11:50:48.838Z,59.69
2016-06-03T11:51:48.888Z,59.17
2016-06-03T11:52:48.953Z,59.39
2016-06-03T11:53:49.002Z,60.53
2016-06-03T11:54:49.051Z,62.87
2016-06-03T11:55:49.679Z,60.74
2016-06-03T11:56:49.167Z,58.49
2016-06-03T11:57:49.217Z,57.67
2016-06-03T11:58:49.266Z,57.37
2016-06-03T11:59:49.347Z,56.6
2016-06-03T12:00:49.381Z,58.15
2016-06-03T12:01:49.431Z,58.71
2016-06-03T12:02:49.480Z,58.61
2016-06-03T12:03:49.545Z,60.05
2016-06-03T12:04:49.594Z,60.79
2016-06-03T12:05:49.645Z,61.77
2016-06-03T12:06:49.694Z,63.26
2016-06-03T12:07:49.758Z,64.88
2016-06-03T12:08:49.808Z,65.53
2016-06-03T12:09:50.061Z,65.98
2016-06-03T12:10:49.907Z,67.66
2016-06-03T12:11:49.958Z,69.57
2016-06-03T12:12:50.053Z,70.79
2016-06-03T12:13:50.056Z,72.27
2016-06-03T12:14:50.106Z,72.66
2016-06-03T12:15:50.171Z,75.27
2016-06-03T12:16:50.205Z,75.65
2016-06-03T12:17:50.254Z,76.91
2016-06-03T12:18:50.320Z,77.94
2016-06-03T12:19:50.354Z,79.58
2016-06-03T12:20:50.404Z,82.29
2016-06-03T12:21:50.452Z,84.09
2016-06-03T12:22:50.502Z,86.27
2016-06-03T12:23:50.552Z,89.7
2016-06-03T12:24:50.665Z,91.49
2016-06-03T12:25:50.651Z,93.32
2016-06-03T12:26:50.685Z,96.22
2016-06-03T12:27:50.734Z,95.5
2016-06-03T12:28:50.784Z,93.95
2016-06-03T12:29:50.834Z,94.1
2016-06-03T12:30:50.868Z,92.8
2016-06-03T12:31:50.917Z,95.31
2016-06-03T12:32:50.967Z,95.79
2016-06-03T12:33:51.001Z,94.43
2016-06-03T12:34:51.051Z,95.01
2016-06-03T12:35:50.928Z,97.24
2016-06-03T12:36:51.134Z,97.81
2016-06-03T12:37:51.183Z,96.17
2016-06-03T12:38:51.217Z,95.4
2016-06-03T12:39:51.658Z,93.85
2016-06-03T12:40:51.519Z,94.87
2016-06-03T12:41:51.366Z,95.93
2016-06-03T12:42:51.400Z,96.7
2016-06-03T12:43:51.278Z,97.57
2016-06-03T12:44:51.499Z,98.83
2016-06-03T12:45:51.533Z,95.25
2016-06-03T12:46:51.583Z,93.9
2016-06-03T12:47:51.616Z,94.1
2016-06-03T12:48:51.666Z,94.68
2016-06-03T12:49:51.716Z,93.9
2016-06-03T12:50:51.749Z,94.62
2016-06-03T12:51:51.674Z,90.33
2016-06-03T12:52:51.833Z,83.01
2016-06-03T12:53:51.882Z,79.41